sensor_id;sensor_type;location;lat;lon;timestamp;P1;durP1;ratioP1;P2;durP2;ratioP2
27357;SDS011;14831;50.474;7.616;2023-09-18T00:00:57;8.2;;;5.8;;
27357;SDS011;14831;50.474;7.616;2023-09-18T00:05:58;8.2;;;5.8;;
27357;SDS011;14831;50.474;7.616;2023-09-18T00:10:58;8.2;;;5.8;;
27357;SDS011;14831;50.474;7.616;2023-09-18T00:15:57;8.2;;;5.8;;
27357;SDS011;14831;50.474;7.616;2023-09-18T00:20:58;8.2;;;5.8;;
27357;SDS011;14831;50.474;7.616;2023-09-18T00:25:57;8.2;;;5.8;;
27357;SDS011;14831;50.474;7.616;2023-09-18T00:30:57;7.8;;;5.5;;
27357;SDS011;14831;50.474;7.616;2023-09-18T00:35:58;7.8;;;5.5;;
27357;SDS011;14831;50.474;7.616;2023-09-18T00:40:58;7.8;;;5.5;;
27357;SDS011;14831;50.474;7.616;2023-09-18T00:45:58;7.8;;;5.5;;
27357;SDS011;14831;50.474;7.616;2023-09-18T00:50:58;7.8;;;5.5;;
27357;SDS011;14831;50.474;7.616;2023-09-18T00:56:00;7.8;;;5.5;;
27357;SDS011;14831;50.474;7.616;2023-09-18T01:00:58;9.2;;;5.5;;
27357;SDS011;14831;50.474;7.616;2023-09-18T01:05:58;9.2;;;5.5;;
27357;SDS011;14831;50.474;7.616;2023-09-18T01:11:05;9.2;;;5.5;;
27357;SDS011;14831;50.474;7.616;2023-09-18T01:16:02;9.2;;;5.5;;
27357;SDS011;14831;50.474;7.616;2023-09-18T01:20:57;9.2;;;5.5;;
27357;SDS011;14831;50.474;7.616;2023-09-18T01:25:58;9.2;;;5.5;;
27357;SDS011;14831;50.474;7.616;2023-09-18T01:30:58;8.1;;;4.9;;
27357;SDS011;14831;50.474;7.616;2023-09-18T01:35:58;8.1;;;4.9;;
27357;SDS011;14831;50.474;7.616;2023-09-18T01:40:58;8.1;;;4.9;;
27357;SDS011;14831;50.474;7.616;2023-09-18T01:45:58;8.1;;;4.9;;
27357;SDS011;14831;50.474;7.616;2023-09-18T01:50:58;8.1;;;4.9;;
27357;SDS011;14831;50.474;7.616;2023-09-18T01:55:57;8.1;;;4.9;;
27357;SDS011;14831;50.474;7.616;2023-09-18T02:01:00;6.9;;;4.7;;
27357;SDS011;14831;50.474;7.616;2023-09-18T02:05:58;6.9;;;4.7;;
27357;SDS011;14831;50.474;7.616;2023-09-18T02:10:58;6.9;;;4.7;;
27357;SDS011;14831;50.474;7.616;2023-09-18T02:15:57;6.9;;;4.7;;
27357;SDS011;14831;50.474;7.616;2023-09-18T02:20:58;6.9;;;4.7;;
27357;SDS011;14831;50.474;7.616;2023-09-18T02:25:58;6.9;;;4.7;;
27357;SDS011;14831;50.474;7.616;2023-09-18T02:30:57;9.1;;;4.8;;
27357;SDS011;14831;50.474;7.616;2023-09-18T02:35:58;9.1;;;4.8;;
27357;SDS011;14831;50.474;7.616;2023-09-18T02:40:58;9.1;;;4.8;;
27357;SDS011;14831;50.474;7.616;2023-09-18T02:45:57;9.1;;;4.8;;
27357;SDS011;14831;50.474;7.616;2023-09-18T02:50:58;9.1;;;4.8;;
27357;SDS011;14831;50.474;7.616;2023-09-18T02:55:59;9.1;;;4.8;;
27357;SDS011;14831;50.474;7.616;2023-09-18T03:00:58;11.3;;;4.7;;
27357;SDS011;14831;50.474;7.616;2023-09-18T03:06:01;11.3;;;4.7;;
27357;SDS011;14831;50.474;7.616;2023-09-18T03:10:58;11.3;;;4.7;;
27357;SDS011;14831;50.474;7.616;2023-09-18T03:15:57;11.3;;;4.7;;
27357;SDS011;14831;50.474;7.616;2023-09-18T03:20:58;11.3;;;4.7;;
27357;SDS011;14831;50.474;7.616;2023-09-18T03:25:57;11.3;;;4.7;;
27357;SDS011;14831;50.474;7.616;2023-09-18T03:30:58;9.9;;;4.2;;
27357;SDS011;14831;50.474;7.616;2023-09-18T03:35:58;9.9;;;4.2;;
27357;SDS011;14831;50.474;7.616;2023-09-18T03:40:59;9.9;;;4.2;;
27357;SDS011;14831;50.474;7.616;2023-09-18T03:46:03;9.9;;;4.2;;
27357;SDS011;14831;50.474;7.616;2023-09-18T03:50:58;9.9;;;4.2;;
27357;SDS011;14831;50.474;7.616;2023-09-18T03:55:58;9.9;;;4.2;;
27357;SDS011;14831;50.474;7.616;2023-09-18T04:00:57;7.7;;;4.0;;
27357;SDS011;14831;50.474;7.616;2023-09-18T04:05:57;7.7;;;4.0;;
27357;SDS011;14831;50.474;7.616;2023-09-18T04:10:57;7.7;;;4.0;;
27357;SDS011;14831;50.474;7.616;2023-09-18T04:15:57;7.7;;;4.0;;
27357;SDS011;14831;50.474;7.616;2023-09-18T04:20:58;7.7;;;4.0;;
27357;SDS011;14831;50.474;7.616;2023-09-18T04:25:58;7.7;;;4.0;;
27357;SDS011;14831;50.474;7.616;2023-09-18T04:30:57;8.7;;;3.9;;
27357;SDS011;14831;50.474;7.616;2023-09-18T04:35:58;8.7;;;3.9;;
27357;SDS011;14831;50.474;7.616;2023-09-18T04:40:58;8.7;;;3.9;;
27357;SDS011;14831;50.474;7.616;2023-09-18T04:45:58;8.7;;;3.9;;
27357;SDS011;14831;50.474;7.616;2023-09-18T04:50:58;8.7;;;3.9;;
27357;SDS011;14831;50.474;7.616;2023-09-18T04:55:58;8.7;;;3.9;;
27357;SDS011;14831;50.474;7.616;2023-09-18T05:00:59;10.0;;;4.0;;
27357;SDS011;14831;50.474;7.616;2023-09-18T05:05:58;10.0;;;4.0;;
27357;SDS011;14831;50.474;7.616;2023-09-18T05:10:57;10.0;;;4.0;;
27357;SDS011;14831;50.474;7.616;2023-09-18T05:15:57;10.0;;;4.0;;
27357;SDS011;14831;50.474;7.616;2023-09-18T05:20:58;10.0;;;4.0;;
27357;SDS011;14831;50.474;7.616;2023-09-18T05:25:57;10.0;;;4.0;;
27357;SDS011;14831;50.474;7.616;2023-09-18T05:30:57;9.9;;;3.6;;
27357;SDS011;14831;50.474;7.616;2023-09-18T05:35:58;9.9;;;3.6;;
27357;SDS011;14831;50.474;7.616;2023-09-18T05:40:57;9.9;;;3.6;;
27357;SDS011;14831;50.474;7.616;2023-09-18T05:45:57;9.9;;;3.6;;
27357;SDS011;14831;50.474;7.616;2023-09-18T05:50:58;9.9;;;3.6;;
27357;SDS011;14831;50.474;7.616;2023-09-18T05:55:57;9.9;;;3.6;;
27357;SDS011;14831;50.474;7.616;2023-09-18T06:00:58;10.3;;;3.9;;
27357;SDS011;14831;50.474;7.616;2023-09-18T06:05:57;10.3;;;3.9;;
27357;SDS011;14831;50.474;7.616;2023-09-18T06:10:57;10.3;;;3.9;;
27357;SDS011;14831;50.474;7.616;2023-09-18T06:15:58;10.3;;;3.9;;
27357;SDS011;14831;50.474;7.616;2023-09-18T06:20:58;10.3;;;3.9;;
27357;SDS011;14831;50.474;7.616;2023-09-18T06:25:57;10.3;;;3.9;;
27357;SDS011;14831;50.474;7.616;2023-09-18T06:30:57;12.6;;;3.9;;
27357;SDS011;14831;50.474;7.616;2023-09-18T06:35:57;12.6;;;3.9;;
27357;SDS011;14831;50.474;7.616;2023-09-18T06:40:58;12.6;;;3.9;;
27357;SDS011;14831;50.474;7.616;2023-09-18T06:45:57;12.6;;;3.9;;
27357;SDS011;14831;50.474;7.616;2023-09-18T06:50:57;12.6;;;3.9;;
27357;SDS011;14831;50.474;7.616;2023-09-18T06:55:57;12.6;;;3.9;;
27357;SDS011;14831;50.474;7.616;2023-09-18T07:00:58;9.6;;;3.4;;
27357;SDS011;14831;50.474;7.616;2023-09-18T07:05:58;9.6;;;3.4;;
27357;SDS011;14831;50.474;7.616;2023-09-18T07:10:57;9.6;;;3.4;;
27357;SDS011;14831;50.474;7.616;2023-09-18T07:15:58;9.6;;;3.4;;
27357;SDS011;14831;50.474;7.616;2023-09-18T07:20:58;9.6;;;3.4;;
27357;SDS011;14831;50.474;7.616;2023-09-18T07:25:58;9.6;;;3.4;;
27357;SDS011;14831;50.474;7.616;2023-09-18T07:31:04;7.9;;;3.1;;
27357;SDS011;14831;50.474;7.616;2023-09-18T07:35:58;7.9;;;3.1;;
27357;SDS011;14831;50.474;7.616;2023-09-18T07:40:58;7.9;;;3.1;;
27357;SDS011;14831;50.474;7.616;2023-09-18T07:45:57;7.9;;;3.1;;
27357;SDS011;14831;50.474;7.616;2023-09-18T07:50:57;7.9;;;3.1;;
27357;SDS011;14831;50.474;7.616;2023-09-18T07:55:58;7.9;;;3.1;;
27357;SDS011;14831;50.474;7.616;2023-09-18T08:00:57;7.4;;;2.6;;
27357;SDS011;14831;50.474;7.616;2023-09-18T08:05:58;7.4;;;2.6;;
27357;SDS011;14831;50.474;7.616;2023-09-18T08:10:57;7.4;;;2.6;;
27357;SDS011;14831;50.474;7.616;2023-09-18T08:15:57;7.4;;;2.6;;
27357;SDS011;14831;50.474;7.616;2023-09-18T08:20:58;7.4;;;2.6;;
27357;SDS011;14831;50.474;7.616;2023-09-18T08:25:58;7.4;;;2.6;;
27357;SDS011;14831;50.474;7.616;2023-09-18T08:30:57;5.3;;;2.0;;
27357;SDS011;14831;50.474;7.616;2023-09-18T08:35:58;5.3;;;2.0;;
27357;SDS011;14831;50.474;7.616;2023-09-18T08:40:58;5.3;;;2.0;;
27357;SDS011;14831;50.474;7.616;2023-09-18T08:45:59;5.3;;;2.0;;
27357;SDS011;14831;50.474;7.616;2023-09-18T08:50:57;5.3;;;2.0;;
27357;SDS011;14831;50.474;7.616;2023-09-18T08:55:59;5.3;;;2.0;;
27357;SDS011;14831;50.474;7.616;2023-09-18T09:00:57;3.7;;;1.9;;
27357;SDS011;14831;50.474;7.616;2023-09-18T09:05:58;3.7;;;1.9;;
27357;SDS011;14831;50.474;7.616;2023-09-18T09:10:58;3.7;;;1.9;;
27357;SDS011;14831;50.474;7.616;2023-09-18T09:15:59;3.7;;;1.9;;
27357;SDS011;14831;50.474;7.616;2023-09-18T09:20:59;3.7;;;1.9;;
27357;SDS011;14831;50.474;7.616;2023-09-18T09:26:12;3.7;;;1.9;;
27357;SDS011;14831;50.474;7.616;2023-09-18T09:31:01;3.2;;;1.6;;
27357;SDS011;14831;50.474;7.616;2023-09-18T09:35:58;3.2;;;1.6;;
27357;SDS011;14831;50.474;7.616;2023-09-18T09:40:58;3.2;;;1.6;;
27357;SDS011;14831;50.474;7.616;2023-09-18T09:45:58;3.2;;;1.6;;
27357;SDS011;14831;50.474;7.616;2023-09-18T09:50:59;3.2;;;1.6;;
27357;SDS011;14831;50.474;7.616;2023-09-18T09:55:58;3.2;;;1.6;;
27357;SDS011;14831;50.474;7.616;2023-09-18T10:01:02;2.7;;;1.5;;
27357;SDS011;14831;50.474;7.616;2023-09-18T10:05:58;2.7;;;1.5;;
27357;SDS011;14831;50.474;7.616;2023-09-18T10:11:01;2.7;;;1.5;;
27357;SDS011;14831;50.474;7.616;2023-09-18T10:15:59;2.7;;;1.5;;
27357;SDS011;14831;50.474;7.616;2023-09-18T10:21:07;2.7;;;1.5;;
27357;SDS011;14831;50.474;7.616;2023-09-18T10:25:59;2.7;;;1.5;;
27357;SDS011;14831;50.474;7.616;2023-09-18T10:30:58;3.6;;;1.6;;
27357;SDS011;14831;50.474;7.616;2023-09-18T10:35:58;3.6;;;1.6;;
27357;SDS011;14831;50.474;7.616;2023-09-18T10:40:58;3.6;;;1.6;;
27357;SDS011;14831;50.474;7.616;2023-09-18T10:45:58;3.6;;;1.6;;
27357;SDS011;14831;50.474;7.616;2023-09-18T10:50:57;3.6;;;1.6;;
27357;SDS011;14831;50.474;7.616;2023-09-18T10:55:58;3.6;;;1.6;;
27357;SDS011;14831;50.474;7.616;2023-09-18T11:00:59;2.7;;;1.3;;
27357;SDS011;14831;50.474;7.616;2023-09-18T11:06:06;2.7;;;1.3;;
27357;SDS011;14831;50.474;7.616;2023-09-18T11:10:59;2.7;;;1.3;;
27357;SDS011;14831;50.474;7.616;2023-09-18T11:15:59;2.7;;;1.3;;
27357;SDS011;14831;50.474;7.616;2023-09-18T11:21:15;2.7;;;1.3;;
27357;SDS011;14831;50.474;7.616;2023-09-18T11:25:57;2.7;;;1.3;;
27357;SDS011;14831;50.474;7.616;2023-09-18T11:30:58;2.8;;;1.2;;
27357;SDS011;14831;50.474;7.616;2023-09-18T11:36:03;2.8;;;1.2;;
27357;SDS011;14831;50.474;7.616;2023-09-18T11:40:58;2.8;;;1.2;;
27357;SDS011;14831;50.474;7.616;2023-09-18T11:45:59;2.8;;;1.2;;
27357;SDS011;14831;50.474;7.616;2023-09-18T11:50:59;2.8;;;1.2;;
27357;SDS011;14831;50.474;7.616;2023-09-18T11:55:58;2.8;;;1.2;;
27357;SDS011;14831;50.474;7.616;2023-09-18T12:01:03;1.6;;;1.1;;
27357;SDS011;14831;50.474;7.616;2023-09-18T12:06:00;1.6;;;1.1;;
27357;SDS011;14831;50.474;7.616;2023-09-18T12:10:58;1.6;;;1.1;;
27357;SDS011;14831;50.474;7.616;2023-09-18T12:15:59;1.6;;;1.1;;
27357;SDS011;14831;50.474;7.616;2023-09-18T12:20:57;1.6;;;1.1;;
27357;SDS011;14831;50.474;7.616;2023-09-18T12:25:59;1.6;;;1.1;;
27357;SDS011;14831;50.474;7.616;2023-09-18T12:30:57;2.6;;;1.3;;
27357;SDS011;14831;50.474;7.616;2023-09-18T12:35:58;2.6;;;1.3;;
27357;SDS011;14831;50.474;7.616;2023-09-18T12:40:58;2.6;;;1.3;;
27357;SDS011;14831;50.474;7.616;2023-09-18T12:45:58;2.6;;;1.3;;
27357;SDS011;14831;50.474;7.616;2023-09-18T12:51:03;2.6;;;1.3;;
27357;SDS011;14831;50.474;7.616;2023-09-18T12:56:06;2.6;;;1.3;;
27357;SDS011;14831;50.474;7.616;2023-09-18T13:00:58;8.1;;;2.2;;
27357;SDS011;14831;50.474;7.616;2023-09-18T13:06:08;8.1;;;2.2;;
27357;SDS011;14831;50.474;7.616;2023-09-18T13:11:01;8.1;;;2.2;;
27357;SDS011;14831;50.474;7.616;2023-09-18T13:15:58;8.1;;;2.2;;
27357;SDS011;14831;50.474;7.616;2023-09-18T13:20:58;8.1;;;2.2;;
27357;SDS011;14831;50.474;7.616;2023-09-18T13:26:00;8.1;;;2.2;;
27357;SDS011;14831;50.474;7.616;2023-09-18T13:30:59;3.1;;;1.6;;
27357;SDS011;14831;50.474;7.616;2023-09-18T13:35:59;3.1;;;1.6;;
27357;SDS011;14831;50.474;7.616;2023-09-18T13:40:58;3.1;;;1.6;;
27357;SDS011;14831;50.474;7.616;2023-09-18T13:45:58;3.1;;;1.6;;
27357;SDS011;14831;50.474;7.616;2023-09-18T13:50:57;3.1;;;1.6;;
27357;SDS011;14831;50.474;7.616;2023-09-18T13:55:57;3.1;;;1.6;;
27357;SDS011;14831;50.474;7.616;2023-09-18T14:00:57;6.3;;;1.8;;
27357;SDS011;14831;50.474;7.616;2023-09-18T14:05:57;6.3;;;1.8;;
27357;SDS011;14831;50.474;7.616;2023-09-18T14:10:57;6.3;;;1.8;;
27357;SDS011;14831;50.474;7.616;2023-09-18T14:15:58;6.3;;;1.8;;
27357;SDS011;14831;50.474;7.616;2023-09-18T14:20:58;6.3;;;1.8;;
27357;SDS011;14831;50.474;7.616;2023-09-18T14:25:57;6.3;;;1.8;;
27357;SDS011;14831;50.474;7.616;2023-09-18T14:30:57;3.2;;;1.9;;
27357;SDS011;14831;50.474;7.616;2023-09-18T14:35:57;3.2;;;1.9;;
27357;SDS011;14831;50.474;7.616;2023-09-18T14:40:57;3.2;;;1.9;;
27357;SDS011;14831;50.474;7.616;2023-09-18T14:45:57;3.2;;;1.9;;
27357;SDS011;14831;50.474;7.616;2023-09-18T14:50:58;3.2;;;1.9;;
27357;SDS011;14831;50.474;7.616;2023-09-18T14:55:59;3.2;;;1.9;;
27357;SDS011;14831;50.474;7.616;2023-09-18T15:00:57;2.9;;;1.8;;
27357;SDS011;14831;50.474;7.616;2023-09-18T15:05:57;2.9;;;1.8;;
27357;SDS011;14831;50.474;7.616;2023-09-18T15:10:57;2.9;;;1.8;;
27357;SDS011;14831;50.474;7.616;2023-09-18T15:15:58;2.9;;;1.8;;
27357;SDS011;14831;50.474;7.616;2023-09-18T15:20:58;2.9;;;1.8;;
27357;SDS011;14831;50.474;7.616;2023-09-18T15:25:58;2.9;;;1.8;;
27357;SDS011;14831;50.474;7.616;2023-09-18T15:30:57;3.8;;;1.7;;
27357;SDS011;14831;50.474;7.616;2023-09-18T15:35:58;3.8;;;1.7;;
27357;SDS011;14831;50.474;7.616;2023-09-18T15:40:57;3.8;;;1.7;;
27357;SDS011;14831;50.474;7.616;2023-09-18T15:45:57;3.8;;;1.7;;
27357;SDS011;14831;50.474;7.616;2023-09-18T15:50:58;3.8;;;1.7;;
27357;SDS011;14831;50.474;7.616;2023-09-18T15:55:57;3.8;;;1.7;;
27357;SDS011;14831;50.474;7.616;2023-09-18T16:00:57;2.9;;;1.9;;
27357;SDS011;14831;50.474;7.616;2023-09-18T16:05:58;2.9;;;1.9;;
27357;SDS011;14831;50.474;7.616;2023-09-18T16:10:57;2.9;;;1.9;;
27357;SDS011;14831;50.474;7.616;2023-09-18T16:15:57;2.9;;;1.9;;
27357;SDS011;14831;50.474;7.616;2023-09-18T16:20:57;2.9;;;1.9;;
27357;SDS011;14831;50.474;7.616;2023-09-18T16:25:57;2.9;;;1.9;;
27357;SDS011;14831;50.474;7.616;2023-09-18T16:30:57;2.6;;;1.7;;
27357;SDS011;14831;50.474;7.616;2023-09-18T16:35:58;2.6;;;1.7;;
27357;SDS011;14831;50.474;7.616;2023-09-18T16:40:57;2.6;;;1.7;;
27357;SDS011;14831;50.474;7.616;2023-09-18T16:45:57;2.6;;;1.7;;
27357;SDS011;14831;50.474;7.616;2023-09-18T16:50:58;2.6;;;1.7;;
27357;SDS011;14831;50.474;7.616;2023-09-18T16:55:57;2.6;;;1.7;;
27357;SDS011;14831;50.474;7.616;2023-09-18T17:00:57;5.4;;;2.0;;
27357;SDS011;14831;50.474;7.616;2023-09-18T17:05:58;5.4;;;2.0;;
27357;SDS011;14831;50.474;7.616;2023-09-18T17:10:57;5.4;;;2.0;;
27357;SDS011;14831;50.474;7.616;2023-09-18T17:15:58;5.4;;;2.0;;
27357;SDS011;14831;50.474;7.616;2023-09-18T17:20:57;5.4;;;2.0;;
27357;SDS011;14831;50.474;7.616;2023-09-18T17:25:58;5.4;;;2.0;;
27357;SDS011;14831;50.474;7.616;2023-09-18T17:30:57;3.8;;;1.8;;
27357;SDS011;14831;50.474;7.616;2023-09-18T17:35:58;3.8;;;1.8;;
27357;SDS011;14831;50.474;7.616;2023-09-18T17:40:57;3.8;;;1.8;;
27357;SDS011;14831;50.474;7.616;2023-09-18T17:45:58;3.8;;;1.8;;
27357;SDS011;14831;50.474;7.616;2023-09-18T17:50:57;3.8;;;1.8;;
27357;SDS011;14831;50.474;7.616;2023-09-18T17:55:57;3.8;;;1.8;;
27357;SDS011;14831;50.474;7.616;2023-09-18T18:00:57;4.1;;;1.7;;
27357;SDS011;14831;50.474;7.616;2023-09-18T18:05:57;4.1;;;1.7;;
27357;SDS011;14831;50.474;7.616;2023-09-18T18:10:58;4.1;;;1.7;;
27357;SDS011;14831;50.474;7.616;2023-09-18T18:15:58;4.1;;;1.7;;
27357;SDS011;14831;50.474;7.616;2023-09-18T18:20:58;4.1;;;1.7;;
27357;SDS011;14831;50.474;7.616;2023-09-18T18:25:57;4.1;;;1.7;;
27357;SDS011;14831;50.474;7.616;2023-09-18T18:30:57;2.3;;;1.6;;
27357;SDS011;14831;50.474;7.616;2023-09-18T18:35:58;2.3;;;1.6;;
27357;SDS011;14831;50.474;7.616;2023-09-18T18:40:59;2.3;;;1.6;;
27357;SDS011;14831;50.474;7.616;2023-09-18T18:45:57;2.3;;;1.6;;
27357;SDS011;14831;50.474;7.616;2023-09-18T18:50:59;2.3;;;1.6;;
27357;SDS011;14831;50.474;7.616;2023-09-18T18:55:57;2.3;;;1.6;;
27357;SDS011;14831;50.474;7.616;2023-09-18T19:00:58;2.5;;;1.6;;
27357;SDS011;14831;50.474;7.616;2023-09-18T19:05:58;2.5;;;1.6;;
27357;SDS011;14831;50.474;7.616;2023-09-18T19:10:58;2.5;;;1.6;;
27357;SDS011;14831;50.474;7.616;2023-09-18T19:15:57;2.5;;;1.6;;
27357;SDS011;14831;50.474;7.616;2023-09-18T19:20:58;2.5;;;1.6;;
27357;SDS011;14831;50.474;7.616;2023-09-18T19:25:57;2.5;;;1.6;;
27357;SDS011;14831;50.474;7.616;2023-09-18T19:30:58;2.1;;;1.5;;
27357;SDS011;14831;50.474;7.616;2023-09-18T19:35:58;2.1;;;1.5;;
27357;SDS011;14831;50.474;7.616;2023-09-18T19:40:57;2.1;;;1.5;;
27357;SDS011;14831;50.474;7.616;2023-09-18T19:45:57;2.1;;;1.5;;
27357;SDS011;14831;50.474;7.616;2023-09-18T19:50:57;2.1;;;1.5;;
27357;SDS011;14831;50.474;7.616;2023-09-18T19:55:57;2.1;;;1.5;;
27357;SDS011;14831;50.474;7.616;2023-09-18T20:00:58;1.4;;;1.3;;
27357;SDS011;14831;50.474;7.616;2023-09-18T20:05:58;1.4;;;1.3;;
27357;SDS011;14831;50.474;7.616;2023-09-18T20:10:58;1.4;;;1.3;;
27357;SDS011;14831;50.474;7.616;2023-09-18T20:15:57;1.4;;;1.3;;
27357;SDS011;14831;50.474;7.616;2023-09-18T20:20:58;1.4;;;1.3;;
27357;SDS011;14831;50.474;7.616;2023-09-18T20:25:58;1.4;;;1.3;;
27357;SDS011;14831;50.474;7.616;2023-09-18T20:30:57;2.5;;;1.2;;
27357;SDS011;14831;50.474;7.616;2023-09-18T20:35:58;2.5;;;1.2;;
27357;SDS011;14831;50.474;7.616;2023-09-18T20:40:57;2.5;;;1.2;;
27357;SDS011;14831;50.474;7.616;2023-09-18T20:45:58;2.5;;;1.2;;
27357;SDS011;14831;50.474;7.616;2023-09-18T20:50:58;2.5;;;1.2;;
27357;SDS011;14831;50.474;7.616;2023-09-18T20:55:57;2.5;;;1.2;;
27357;SDS011;14831;50.474;7.616;2023-09-18T21:00:58;2.5;;;1.2;;
27357;SDS011;14831;50.474;7.616;2023-09-18T21:05:58;1.1;;;1.0;;
27357;SDS011;14831;50.474;7.616;2023-09-18T21:10:58;1.1;;;1.0;;
27357;SDS011;14831;50.474;7.616;2023-09-18T21:15:57;1.1;;;1.0;;
27357;SDS011;14831;50.474;7.616;2023-09-18T21:20:58;1.1;;;1.0;;
27357;SDS011;14831;50.474;7.616;2023-09-18T21:25:58;1.1;;;1.0;;
27357;SDS011;14831;50.474;7.616;2023-09-18T21:31:06;1.7;;;1.2;;
27357;SDS011;14831;50.474;7.616;2023-09-18T21:35:58;1.7;;;1.2;;
27357;SDS011;14831;50.474;7.616;2023-09-18T21:40:58;1.7;;;1.2;;
27357;SDS011;14831;50.474;7.616;2023-09-18T21:45:57;1.7;;;1.2;;
27357;SDS011;14831;50.474;7.616;2023-09-18T21:50:57;1.7;;;1.2;;
27357;SDS011;14831;50.474;7.616;2023-09-18T21:55:58;1.7;;;1.2;;
27357;SDS011;14831;50.474;7.616;2023-09-18T22:01:03;1.4;;;1.1;;
27357;SDS011;14831;50.474;7.616;2023-09-18T22:05:57;1.4;;;1.1;;
27357;SDS011;14831;50.474;7.616;2023-09-18T22:10:58;1.4;;;1.1;;
27357;SDS011;14831;50.474;7.616;2023-09-18T22:15:58;1.4;;;1.1;;
27357;SDS011;14831;50.474;7.616;2023-09-18T22:20:57;1.4;;;1.1;;
27357;SDS011;14831;50.474;7.616;2023-09-18T22:25:57;1.4;;;1.1;;
27357;SDS011;14831;50.474;7.616;2023-09-18T22:30:58;1.4;;;0.9;;
27357;SDS011;14831;50.474;7.616;2023-09-18T22:35:58;1.4;;;0.9;;
27357;SDS011;14831;50.474;7.616;2023-09-18T22:55:58;1.4;;;0.9;;
27357;SDS011;14831;50.474;7.616;2023-09-18T23:00:59;0.8;;;0.7;;
27357;SDS011;14831;50.474;7.616;2023-09-18T23:05:58;0.8;;;0.7;;
27357;SDS011;14831;50.474;7.616;2023-09-18T23:10:58;0.8;;;0.7;;
27357;SDS011;14831;50.474;7.616;2023-09-18T23:15:58;0.8;;;0.7;;
27357;SDS011;14831;50.474;7.616;2023-09-18T23:20:57;0.8;;;0.7;;
27357;SDS011;14831;50.474;7.616;2023-09-18T23:25:58;0.8;;;0.7;;
27357;SDS011;14831;50.474;7.616;2023-09-18T23:30:58;0.7;;;0.6;;
27357;SDS011;14831;50.474;7.616;2023-09-18T23:35:57;0.7;;;0.6;;
27357;SDS011;14831;50.474;7.616;2023-09-18T23:40:57;0.7;;;0.6;;
27357;SDS011;14831;50.474;7.616;2023-09-18T23:45:58;0.7;;;0.6;;
27357;SDS011;14831;50.474;7.616;2023-09-18T23:50:57;0.7;;;0.6;;
27357;SDS011;14831;50.474;7.616;2023-09-18T23:55:57;0.7;;;0.6;;
